Terminal Aerodrome Forecast
Issued by NWS

Home | Current Version | Previous Version | Graphics & Text | Print | Product List | Glossary On
Versions: 1 2 3 4 5 6 7 8 9 10 11 12 13 14 15 16 17
000
FTUS43 KPAH 312159 AAA
TAFCGI
TAF AMD
KCGI 312159Z 3122/0118 17006KT P6SM VCTS SCT040CB BKN100
     FM010000 VRB02KT P6SM SKC
      TEMPO 0108/0112 5SM BR
     FM011400 19004KT P6SM SCT035=

USA.gov is the U.S. government's official web portal to all federal, state and local government web resources and services.